Time;durP1;ratioP1;P1;durP2;ratioP2;P2;SDS_P1;SDS_P2;PMS_P1;PMS_P2;Temp;Humidity;BMP_temperature;BMP_pressure;BME280_temperature;BME280_humidity;BME280_pressure;Samples;Min_cycle;Max_cycle;Signal;HPM_P1;HPM_P2
2021/12/06 00:01:29;;;;;;;;;;;;;;;4.78;84.73;101008.56;5287158;28;19920;-74
2021/12/06 00:04:13;;;;;;;;;;;;;;;4.77;84.66;101008.81;5285016;28;19922;-74
2021/12/06 00:06:45;;;;;;;;;;;;;;;4.79;84.70;101018.47;5286948;28;19968;-74
2021/12/06 00:09:18;;;;;;;;;;;;;;;4.83;84.76;101023.47;5286675;28;20315;-74
2021/12/06 00:11:56;;;;;;;;;;;;;;;4.86;84.86;101018.31;5285941;28;19917;-73
2021/12/06 00:14:30;;;;;;;;;;;;;;;4.88;84.63;101020.81;5285580;28;19920;-74
2021/12/06 00:17:03;;;;;;;;;;;;;;;4.90;84.60;101024.16;5286532;28;19923;-74
2021/12/06 00:19:34;;;;;;;;;;;;;;;4.92;84.87;101025.56;5285170;28;20287;-74
2021/12/06 00:22:07;;;;;;;;;;;;;;;4.94;84.63;101037.16;5286802;28;19916;-74
2021/12/06 00:24:38;;;;;;;;;;;;;;;4.93;84.61;101032.72;5277322;28;20323;-74
2021/12/06 00:27:09;;;;;;;;;;;;;;;4.94;84.57;101044.56;5285596;28;19917;-74
2021/12/06 00:29:40;;;;;;;;;;;;;;;4.95;84.62;101048.97;5283264;28;20298;-74
2021/12/06 00:32:12;;;;;;;;;;;;;;;4.96;84.82;101045.13;5285471;28;20039;-74
2021/12/06 00:34:43;;;;;;;;;;;;;;;4.96;84.74;101043.25;5285831;28;20421;-74
2021/12/06 00:37:30;;;;;;;;;;;;;;;4.96;84.69;101047.88;5286310;28;19940;-74
2021/12/06 00:40:06;;;;;;;;;;;;;;;4.96;84.93;101045.13;5286165;28;19917;-74
2021/12/06 00:42:38;;;;;;;;;;;;;;;4.96;84.64;101061.63;5285415;28;19927;-74
2021/12/06 00:45:09;;;;;;;;;;;;;;;4.96;84.66;101061.63;5285439;28;20368;-74
2021/12/06 00:47:40;;;;;;;;;;;;;;;4.96;84.90;101064.38;5285094;28;19931;-74
2021/12/06 00:50:12;;;;;;;;;;;;;;;4.97;85.01;101074.31;5285264;28;19951;-73
2021/12/06 00:52:43;;;;;;;;;;;;;;;4.99;85.08;101072.16;5285878;28;20371;-74
2021/12/06 00:55:16;;;;;;;;;;;;;;;5.00;85.28;101077.38;5284946;28;19920;-74
2021/12/06 00:57:49;;;;;;;;;;;;;;;4.97;84.87;101079.81;5285988;28;20430;-74
2021/12/06 01:00:35;;;;;;;;;;;;;;;4.97;84.97;101082.56;5284709;28;20323;-74
2021/12/06 01:03:11;;;;;;;;;;;;;;;4.95;85.17;101087.44;5284402;28;20305;-73
2021/12/06 01:05:42;;;;;;;;;;;;;;;4.93;85.11;101095.09;5285542;28;19917;-74
2021/12/06 01:08:13;;;;;;;;;;;;;;;4.94;85.25;101097.63;5284954;28;19983;-74
2021/12/06 01:10:45;;;;;;;;;;;;;;;4.98;84.94;101108.94;5285534;28;19975;-74
2021/12/06 01:13:17;;;;;;;;;;;;;;;4.97;84.81;101107.28;5282257;28;19924;-74
2021/12/06 01:15:49;;;;;;;;;;;;;;;4.96;85.07;101100.97;5278530;28;19921;-74
2021/12/06 01:18:21;;;;;;;;;;;;;;;4.96;85.07;101100.09;5285324;28;19917;-74
2021/12/06 01:21:12;;;;;;;;;;;;;;;4.98;85.16;101104.28;5285633;28;19916;-74
2021/12/06 01:23:57;;;;;;;;;;;;;;;4.99;85.24;101105.97;5285554;28;19924;-75
2021/12/06 01:26:41;;;;;;;;;;;;;;;5.01;85.67;101113.94;5285172;28;19927;-74
2021/12/06 01:40:26;;;;;;;;;;;;;;;5.09;85.35;101118.22;5285537;28;19916;-74
2021/12/06 01:43:02;;;;;;;;;;;;;;;5.08;85.21;101117.38;5283826;28;19924;-74
2021/12/06 01:45:34;;;;;;;;;;;;;;;5.07;85.22;101128.66;5262694;28;19921;-74
2021/12/06 01:48:05;;;;;;;;;;;;;;;5.06;85.41;101132.44;5267043;28;20284;-74
2021/12/06 01:50:38;;;;;;;;;;;;;;;5.05;85.31;101126.13;5283904;28;20396;-74
2021/12/06 01:53:09;;;;;;;;;;;;;;;5.07;85.59;101129.47;5284475;28;19939;-74
2021/12/06 01:55:40;;;;;;;;;;;;;;;5.03;85.35;101136.53;5284725;28;19925;-74
2021/12/06 01:58:11;;;;;;;;;;;;;;;5.00;85.81;101135.09;5282282;28;19916;-74
2021/12/06 02:00:45;;;;;;;;;;;;;;;5.01;85.62;101136.78;5280456;28;19928;-74
2021/12/06 02:03:16;;;;;;;;;;;;;;;4.99;85.44;101135.38;5283700;28;19924;-74
2021/12/06 02:05:48;;;;;;;;;;;;;;;4.99;85.84;101138.13;5275883;28;19920;-74
2021/12/06 02:08:20;;;;;;;;;;;;;;;4.98;85.91;101137.25;5279965;28;19917;-74
2021/12/06 02:10:59;;;;;;;;;;;;;;;5.00;85.57;101137.84;5281579;28;19927;-75
2021/12/06 02:13:37;;;;;;;;;;;;;;;5.01;85.71;101136.78;5273509;28;19967;-74
2021/12/06 02:16:08;;;;;;;;;;;;;;;5.01;85.95;101146.94;5282771;28;19916;-74
2021/12/06 02:18:48;;;;;;;;;;;;;;;5.02;85.97;101137.63;5281746;28;19916;-73
2021/12/06 02:21:27;;;;;;;;;;;;;;;5.06;85.83;101141.53;5284323;28;19919;-73
2021/12/06 02:24:00;;;;;;;;;;;;;;;5.06;85.50;101147.03;5284229;28;19963;-72
2021/12/06 02:26:31;;;;;;;;;;;;;;;5.05;85.72;101148.13;5283126;28;19974;-72
2021/12/06 02:29:03;;;;;;;;;;;;;;;5.05;85.50;101152.78;5280564;28;19916;-73
2021/12/06 02:31:35;;;;;;;;;;;;;;;5.03;85.94;101153.03;5282885;28;19966;-73
2021/12/06 02:34:06;;;;;;;;;;;;;;;5.05;85.61;101155.53;5283550;28;20327;-73
2021/12/06 02:36:38;;;;;;;;;;;;;;;5.01;85.61;101157.94;5283998;28;19921;-73
2021/12/06 02:39:10;;;;;;;;;;;;;;;4.92;85.89;101157.50;5286179;28;19999;-72
2021/12/06 02:41:41;;;;;;;;;;;;;;;4.81;86.60;101169.38;5290187;28;19921;-73
2021/12/06 02:44:13;;;;;;;;;;;;;;;4.75;86.88;101171.16;5283405;28;19927;-72
2021/12/06 02:46:44;;;;;;;;;;;;;;;4.78;86.48;101169.84;5281238;28;20014;-73
2021/12/06 02:49:15;;;;;;;;;;;;;;;4.79;86.85;101180.59;5262846;28;20419;-73
2021/12/06 02:51:47;;;;;;;;;;;;;;;4.75;86.74;101182.16;5263022;28;19972;-73
2021/12/06 02:54:23;;;;;;;;;;;;;;;4.71;87.00;101182.91;5261255;28;19917;-72
2021/12/06 02:59:44;;;;;;;;;;;;;;;4.78;86.66;101189.94;5256781;28;19924;-72
2021/12/06 03:02:18;;;;;;;;;;;;;;;4.83;86.54;101182.84;5262628;28;19921;-72
2021/12/06 03:04:49;;;;;;;;;;;;;;;4.83;86.78;101182.84;5262741;28;20003;-73
2021/12/06 03:07:23;;;;;;;;;;;;;;;4.80;86.66;101192.41;5261930;28;20016;-73
2021/12/06 03:09:56;;;;;;;;;;;;;;;4.67;87.66;101184.44;5262942;28;19943;-73
2021/12/06 03:12:27;;;;;;;;;;;;;;;4.56;88.12;101189.72;5262457;28;20008;-72
2021/12/06 03:14:59;;;;;;;;;;;;;;;4.50;88.30;101187.94;5260864;28;19924;-73
2021/12/06 03:17:30;;;;;;;;;;;;;;;4.52;88.28;101184.94;5262246;28;19927;-73
2021/12/06 03:20:06;;;;;;;;;;;;;;;4.59;88.37;101185.66;5262394;28;19963;-72
2021/12/06 03:22:37;;;;;;;;;;;;;;;4.68;87.73;101197.94;5246897;28;19952;-75
2021/12/06 03:25:10;;;;;;;;;;;;;;;4.72;87.60;101193.63;5259843;28;19960;-73
2021/12/06 03:27:41;;;;;;;;;;;;;;;4.76;87.52;101200.31;5256101;28;20015;-73
2021/12/06 03:30:13;;;;;;;;;;;;;;;4.82;86.89;101192.19;5264265;28;20336;-74
2021/12/06 03:32:44;;;;;;;;;;;;;;;4.86;86.93;101193.34;5268181;28;19916;-74
2021/12/06 03:35:15;;;;;;;;;;;;;;;4.87;86.67;101184.88;5261024;28;19920;-73
2021/12/06 03:37:46;;;;;;;;;;;;;;;4.84;87.11;101195.53;5262311;28;20372;-74
2021/12/06 03:40:18;;;;;;;;;;;;;;;4.76;87.65;101200.31;5262247;28;19947;-73
2021/12/06 03:42:50;;;;;;;;;;;;;;;4.77;87.35;101199.22;5260173;28;19924;-73
2021/12/06 03:45:22;;;;;;;;;;;;;;;4.79;87.00;101202.56;5262128;28;19921;-73
2021/12/06 03:47:53;;;;;;;;;;;;;;;4.83;87.12;101199.34;5270646;28;20371;-73
2021/12/06 03:50:25;;;;;;;;;;;;;;;4.86;86.59;101209.84;5261213;28;20032;-73
2021/12/06 03:52:56;;;;;;;;;;;;;;;4.89;86.92;101198.38;5261718;28;20011;-73
2021/12/06 03:55:27;;;;;;;;;;;;;;;4.89;86.57;101199.22;5262423;28;19967;-73
2021/12/06 03:57:58;;;;;;;;;;;;;;;4.90;86.57;101197.28;5259985;28;19920;-74
2021/12/06 04:00:30;;;;;;;;;;;;;;;4.91;86.78;101198.94;5261702;28;19943;-73
2021/12/06 04:03:01;;;;;;;;;;;;;;;4.91;86.51;101197.06;5261055;28;19917;-73
2021/12/06 04:05:32;;;;;;;;;;;;;;;4.91;86.68;101196.19;5271410;28;19917;-73
2021/12/06 04:08:04;;;;;;;;;;;;;;;4.93;86.75;101202.31;5255632;28;19969;-74
2021/12/06 04:10:35;;;;;;;;;;;;;;;4.94;86.36;101207.56;5243168;28;19929;-73
2021/12/06 04:13:06;;;;;;;;;;;;;;;4.96;86.68;101215.53;5261663;28;19925;-74
2021/12/06 04:15:40;;;;;;;;;;;;;;;4.93;86.77;101216.03;5274195;28;19917;-72
2021/12/06 04:18:12;;;;;;;;;;;;;;;4.93;86.75;101214.13;5281765;28;19923;-72
2021/12/06 04:20:46;;;;;;;;;;;;;;;4.93;86.61;101210.53;5261967;28;20275;-73
2021/12/06 04:23:17;;;;;;;;;;;;;;;4.95;86.69;101208.41;5261686;28;19931;-74
2021/12/06 04:25:49;;;;;;;;;;;;;;;4.96;86.51;101215.53;5260914;28;19917;-74
2021/12/06 04:28:20;;;;;;;;;;;;;;;4.96;86.53;101210.06;5265622;28;19916;-74
2021/12/06 04:30:51;;;;;;;;;;;;;;;4.84;86.73;101210.09;5264656;28;20001;-74
2021/12/06 04:33:23;;;;;;;;;;;;;;;4.77;86.93;101203.91;5281805;28;19927;-72
2021/12/06 04:35:54;;;;;;;;;;;;;;;4.77;86.71;101212.13;5265651;28;19921;-72
2021/12/06 04:38:25;;;;;;;;;;;;;;;4.79;86.98;101213.56;5263344;28;19995;-72
2021/12/06 04:40:57;;;;;;;;;;;;;;;4.79;86.81;101213.56;5264785;28;20364;-72
2021/12/06 04:43:29;;;;;;;;;;;;;;;4.78;86.32;101225.66;5264931;28;20417;-73
2021/12/06 04:46:00;;;;;;;;;;;;;;;4.75;86.30;101226.09;5264421;28;19916;-73
2021/12/06 04:48:32;;;;;;;;;;;;;;;4.67;86.57;101218.25;5264887;28;19921;-72
2021/12/06 04:51:04;;;;;;;;;;;;;;;4.64;86.67;101223.41;5264064;28;19957;-73
2021/12/06 04:53:36;;;;;;;;;;;;;;;4.63;86.82;101230.81;5264010;28;19924;-73
2021/12/06 04:56:16;;;;;;;;;;;;;;;4.63;86.61;101228.06;5265025;28;19925;-73
2021/12/06 04:58:50;;;;;;;;;;;;;;;4.64;86.70;101231.63;5264661;28;19921;-72
2021/12/06 05:01:24;;;;;;;;;;;;;;;4.64;86.48;101232.47;5254211;28;19921;-73
2021/12/06 05:03:58;;;;;;;;;;;;;;;4.63;86.38;101232.69;5264539;28;19974;-73
2021/12/06 05:06:31;;;;;;;;;;;;;;;4.63;86.26;101238.19;5263905;28;19921;-73
2021/12/06 05:09:07;;;;;;;;;;;;;;;4.61;86.05;101238.44;5264602;28;19917;-72
2021/12/06 05:11:38;;;;;;;;;;;;;;;4.60;85.84;101239.50;5263633;28;19925;-72
2021/12/06 05:14:09;;;;;;;;;;;;;;;4.58;86.08;101241.69;5263800;28;20368;-72
2021/12/06 05:16:41;;;;;;;;;;;;;;;4.51;85.90;101239.06;5264826;28;19917;-73
2021/12/06 05:19:12;;;;;;;;;;;;;;;4.49;85.71;101245.84;5264878;28;19924;-72
2021/12/06 05:21:43;;;;;;;;;;;;;;;4.46;85.59;101251.84;5263741;28;19924;-73
2021/12/06 05:24:17;;;;;;;;;;;;;;;4.44;85.82;101256.72;5264640;28;20067;-72
2021/12/06 05:26:49;;;;;;;;;;;;;;;4.39;85.81;101251.94;5264837;28;19927;-72
2021/12/06 05:29:24;;;;;;;;;;;;;;;4.35;85.65;101257.09;5267484;28;19917;-72
2021/12/06 05:31:58;;;;;;;;;;;;;;;4.34;85.51;101263.63;5266532;28;20292;-72
2021/12/06 05:34:38;;;;;;;;;;;;;;;4.32;85.66;101260.31;5263563;28;20015;-72
2021/12/06 05:37:11;;;;;;;;;;;;;;;4.29;85.48;101254.44;5263817;28;19917;-72
2021/12/06 05:39:42;;;;;;;;;;;;;;;4.26;85.35;101254.94;5264388;28;19916;-73
2021/12/06 05:42:15;;;;;;;;;;;;;;;4.24;85.42;101255.16;5263554;28;20261;-73
2021/12/06 05:44:46;;;;;;;;;;;;;;;4.20;85.82;101248.47;5262761;28;19921;-72
2021/12/06 05:47:17;;;;;;;;;;;;;;;4.20;85.80;101247.66;5262087;28;20364;-72
2021/12/06 05:49:48;;;;;;;;;;;;;;;4.19;85.55;101251.47;5294502;28;19970;-72
2021/12/06 05:52:20;;;;;;;;;;;;;;;4.16;85.72;101254.69;5306154;28;19923;-72
2021/12/06 05:54:51;;;;;;;;;;;;;;;4.09;85.24;101255.63;5305999;28;20011;-72
2021/12/06 05:57:22;;;;;;;;;;;;;;;4.04;86.01;101261.00;5304814;28;19959;-72
2021/12/06 05:59:53;;;;;;;;;;;;;;;4.06;85.97;101260.75;5283629;28;20007;-73
2021/12/06 06:02:24;;;;;;;;;;;;;;;4.05;85.98;101262.66;5283214;28;20034;-73
2021/12/06 06:04:56;;;;;;;;;;;;;;;4.05;86.37;101270.06;5292970;28;19927;-73
2021/12/06 06:07:27;;;;;;;;;;;;;;;4.01;86.88;101272.44;5284325;28;19924;-73
2021/12/06 06:09:58;;;;;;;;;;;;;;;3.97;87.19;101279.47;5283107;28;19927;-73
2021/12/06 06:12:29;;;;;;;;;;;;;;;3.95;86.83;101281.63;5284097;28;19922;-72
2021/12/06 06:15:00;;;;;;;;;;;;;;;3.92;86.34;101284.84;5283665;28;20426;-73
2021/12/06 06:17:39;;;;;;;;;;;;;;;3.86;87.07;101288.50;5282869;28;19981;-72
2021/12/06 06:20:14;;;;;;;;;;;;;;;3.82;87.30;101292.81;5284567;28;19989;-72
2021/12/06 06:22:45;;;;;;;;;;;;;;;3.81;87.47;101297.47;5283405;28;19920;-73
2021/12/06 06:25:16;;;;;;;;;;;;;;;3.78;87.19;101291.59;5283600;28;20470;-73
2021/12/06 06:27:47;;;;;;;;;;;;;;;3.77;87.57;101301.72;5283575;28;19924;-72
2021/12/06 06:30:19;;;;;;;;;;;;;;;3.80;87.56;101305.91;5283708;28;19962;-73
2021/12/06 06:32:50;;;;;;;;;;;;;;;3.76;87.14;101294.59;5283883;28;19928;-72
2021/12/06 06:35:22;;;;;;;;;;;;;;;3.77;87.21;101296.25;5284118;28;19999;-73
2021/12/06 06:37:54;;;;;;;;;;;;;;;3.81;87.72;101297.47;5274069;28;19928;-73
2021/12/06 06:40:25;;;;;;;;;;;;;;;3.85;88.17;101301.38;5279957;28;19970;-73
2021/12/06 06:42:57;;;;;;;;;;;;;;;3.89;87.96;101299.88;5285173;28;19956;-73
2021/12/06 06:45:28;;;;;;;;;;;;;;;3.92;87.32;101293.91;5284009;28;20380;-73
2021/12/06 06:47:59;;;;;;;;;;;;;;;3.95;87.86;101302.75;5273921;28;19921;-73
2021/12/06 06:50:31;;;;;;;;;;;;;;;3.97;88.01;101301.44;5261577;28;19921;-73
2021/12/06 06:53:02;;;;;;;;;;;;;;;3.99;87.97;101293.81;5260427;28;20399;-73
2021/12/06 06:55:33;;;;;;;;;;;;;;;4.01;88.16;101296.31;5262936;28;19927;-73
2021/12/06 06:58:05;;;;;;;;;;;;;;;4.01;88.17;101302.63;5261428;28;19924;-73
2021/12/06 07:00:37;;;;;;;;;;;;;;;4.00;87.65;101297.38;5261594;28;19924;-73
2021/12/06 07:03:09;;;;;;;;;;;;;;;4.01;87.76;101307.28;5262492;28;19975;-73
2021/12/06 07:05:40;;;;;;;;;;;;;;;4.02;87.69;101303.47;5262056;28;19921;-73
2021/12/06 07:08:11;;;;;;;;;;;;;;;4.00;87.47;101300.13;5261928;28;19920;-73
2021/12/06 07:10:44;;;;;;;;;;;;;;;3.98;87.57;101297.59;5262194;28;20471;-73
2021/12/06 07:13:19;;;;;;;;;;;;;;;3.98;87.95;101296.78;5260570;28;19921;-73
2021/12/06 07:15:50;;;;;;;;;;;;;;;4.01;87.96;101301.78;5241984;28;19913;-73
2021/12/06 07:18:24;;;;;;;;;;;;;;;4.04;87.62;101312.28;5241985;28;19964;-74
2021/12/06 07:20:55;;;;;;;;;;;;;;;4.08;88.04;101316.25;5260563;28;20271;-73
2021/12/06 07:23:26;;;;;;;;;;;;;;;4.10;87.93;101322.34;5261728;28;19921;-73
2021/12/06 07:25:57;;;;;;;;;;;;;;;4.13;87.60;101321.88;5261999;28;19935;-74
2021/12/06 07:28:29;;;;;;;;;;;;;;;4.12;87.11;101323.78;5262172;28;19928;-73
2021/12/06 07:31:02;;;;;;;;;;;;;;;4.13;87.19;101330.09;5262148;28;20295;-73
2021/12/06 07:33:33;;;;;;;;;;;;;;;4.14;87.35;101332.63;5261463;28;19924;-73
2021/12/06 07:36:04;;;;;;;;;;;;;;;4.13;86.91;101333.69;5261180;28;19927;-73
2021/12/06 07:38:37;;;;;;;;;;;;;;;4.15;87.22;101336.22;5262689;28;20479;-73
2021/12/06 07:41:11;;;;;;;;;;;;;;;4.18;87.10;101335.72;5261363;28;20300;-73
2021/12/06 07:43:43;;;;;;;;;;;;;;;4.19;87.29;101340.13;5261687;28;19991;-74
2021/12/06 07:46:15;;;;;;;;;;;;;;;4.21;87.53;101327.03;5262021;28;19924;-73
2021/12/06 07:48:52;;;;;;;;;;;;;;;4.25;87.24;101330.97;5276589;28;20364;-73
2021/12/06 07:51:24;;;;;;;;;;;;;;;4.28;87.28;101325.00;5282352;28;19917;-74
2021/12/06 07:53:57;;;;;;;;;;;;;;;4.27;87.27;101317.84;5290390;28;19967;-74
2021/12/06 07:56:29;;;;;;;;;;;;;;;4.29;87.24;101321.19;5271322;28;19921;-72
2021/12/06 07:59:00;;;;;;;;;;;;;;;4.31;87.53;101312.72;5276911;28;19920;-73
2021/12/06 08:01:31;;;;;;;;;;;;;;;4.30;87.63;101311.88;5286312;28;20283;-74
2021/12/06 08:04:02;;;;;;;;;;;;;;;4.32;87.39;101312.50;5277555;28;19921;-73
2021/12/06 08:06:37;;;;;;;;;;;;;;;4.29;87.37;101304.69;5282522;28;19917;-73
2021/12/06 08:09:08;;;;;;;;;;;;;;;4.30;88.71;101306.41;5284402;28;19927;-72
2021/12/06 08:11:39;;;;;;;;;;;;;;;4.32;88.15;101308.88;5286540;28;19916;-72
2021/12/06 08:14:11;;;;;;;;;;;;;;;4.32;88.10;101308.88;5286094;28;20272;-73
2021/12/06 08:16:43;;;;;;;;;;;;;;;4.33;87.82;101300.41;5285646;28;19990;-72
2021/12/06 08:19:15;;;;;;;;;;;;;;;4.33;87.91;101310.56;5290074;28;20375;-73
2021/12/06 08:21:47;;;;;;;;;;;;;;;4.28;87.61;101300.28;5291953;28;19924;-73
2021/12/06 08:24:18;;;;;;;;;;;;;;;4.28;87.76;101302.22;5285875;28;19928;-73
2021/12/06 08:26:49;;;;;;;;;;;;;;;4.30;87.82;101311.88;5286360;28;19917;-73
2021/12/06 08:29:22;;;;;;;;;;;;;;;4.31;87.95;101301.72;5285905;28;19920;-73
2021/12/06 08:31:53;;;;;;;;;;;;;;;4.32;87.74;101304.25;5285148;28;20062;-73
2021/12/06 08:34:24;;;;;;;;;;;;;;;4.33;87.94;101316.91;5281607;28;19956;-73
2021/12/06 08:36:55;;;;;;;;;;;;;;;4.33;87.52;101311.41;5291602;28;19912;-72
2021/12/06 08:39:26;;;;;;;;;;;;;;;4.32;87.42;101328.09;5290670;28;19924;-73
2021/12/06 08:41:58;;;;;;;;;;;;;;;4.28;87.15;101330.50;5288338;28;19912;-74
2021/12/06 08:44:29;;;;;;;;;;;;;;;4.18;87.38;101341.22;5286132;28;19916;-73
2021/12/06 08:47:02;;;;;;;;;;;;;;;4.16;87.66;101348.84;5285263;28;19962;-74
2021/12/06 08:49:34;;;;;;;;;;;;;;;4.17;87.49;101352.44;5286500;28;20327;-74
2021/12/06 08:52:05;;;;;;;;;;;;;;;4.18;88.11;101349.47;5285333;28;19917;-74
2021/12/06 08:54:37;;;;;;;;;;;;;;;4.19;88.12;101347.53;5289608;28;19978;-74
2021/12/06 08:57:08;;;;;;;;;;;;;;;4.21;87.95;101346.25;5285610;28;20356;-73
2021/12/06 08:59:40;;;;;;;;;;;;;;;4.25;88.39;101344.72;5284966;28;19920;-74
2021/12/06 09:02:11;;;;;;;;;;;;;;;4.29;88.48;101354.13;5285563;28;19916;-73
2021/12/06 09:04:44;;;;;;;;;;;;;;;4.34;88.22;101354.25;5285877;28;19917;-74
2021/12/06 09:07:15;;;;;;;;;;;;;;;4.38;88.31;101356.56;5285084;28;19920;-74
2021/12/06 09:09:49;;;;;;;;;;;;;;;4.39;87.94;101356.31;5285656;28;19916;-74
2021/12/06 09:12:24;;;;;;;;;;;;;;;4.41;88.19;101361.56;5278070;28;19922;-74
2021/12/06 09:14:57;;;;;;;;;;;;;;;4.39;87.74;101361.78;5277782;28;19959;-73
2021/12/06 09:17:32;;;;;;;;;;;;;;;4.42;87.75;101358.56;5274505;28;20384;-73
2021/12/06 09:20:05;;;;;;;;;;;;;;;4.44;87.94;101361.09;5284946;28;19959;-73
2021/12/06 09:22:36;;;;;;;;;;;;;;;4.38;87.96;101356.56;5285612;28;20252;-73
2021/12/06 09:25:10;;;;;;;;;;;;;;;4.38;88.00;101351.06;5285295;28;19924;-74
2021/12/06 09:27:42;;;;;;;;;;;;;;;4.37;88.24;101350.19;5284978;28;20271;-72
2021/12/06 09:30:17;;;;;;;;;;;;;;;4.35;87.80;101366.94;5284881;28;20020;-72
2021/12/06 09:32:50;;;;;;;;;;;;;;;4.33;87.51;101365.50;5276478;28;19939;-72
2021/12/06 09:35:25;;;;;;;;;;;;;;;4.29;87.68;101359.63;5284635;28;19916;-74
2021/12/06 09:37:58;;;;;;;;;;;;;;;4.24;88.15;101364.16;5285425;28;19962;-73
2021/12/06 09:40:30;;;;;;;;;;;;;;;4.23;88.20;101366.06;5284597;28;19917;-73
2021/12/06 09:43:03;;;;;;;;;;;;;;;4.20;87.99;101360.22;5284110;28;20170;-73
2021/12/06 09:45:39;;;;;;;;;;;;;;;4.17;87.87;101358.78;5273528;28;19990;-74
2021/12/06 09:48:12;;;;;;;;;;;;;;;4.18;88.02;101363.19;5281436;28;20024;-73
2021/12/06 09:50:45;;;;;;;;;;;;;;;4.20;88.48;101365.72;5285400;28;20291;-73
2021/12/06 09:53:19;;;;;;;;;;;;;;;4.19;88.53;101364.84;5284990;28;20280;-74
2021/12/06 09:55:51;;;;;;;;;;;;;;;4.21;88.25;101375.59;5284827;28;19940;-73
2021/12/06 09:58:23;;;;;;;;;;;;;;;4.26;88.52;101375.75;5284166;28;20364;-74
2021/12/06 10:00:57;;;;;;;;;;;;;;;4.28;88.45;101374.44;5283795;28;20062;-73
2021/12/06 10:03:29;;;;;;;;;;;;;;;4.29;88.08;101367.03;5278050;28;19924;-73
2021/12/06 10:06:04;;;;;;;;;;;;;;;4.30;88.39;101360.47;5284305;28;19924;-74
2021/12/06 10:08:37;;;;;;;;;;;;;;;4.32;88.43;101352.81;5284463;28;19917;-74
2021/12/06 10:11:08;;;;;;;;;;;;;;;4.30;88.30;101344.84;5283979;28;19920;-73
2021/12/06 10:13:40;;;;;;;;;;;;;;;4.29;87.66;101353.31;5283877;28;19921;-74
2021/12/06 10:16:12;;;;;;;;;;;;;;;4.27;88.22;101348.06;5283307;28;19963;-74
2021/12/06 10:18:43;;;;;;;;;;;;;;;4.24;87.63;101334.78;5284385;28;20359;-74
2021/12/06 10:21:15;;;;;;;;;;;;;;;4.17;87.74;101334.06;5284136;28;19924;-73
2021/12/06 10:23:46;;;;;;;;;;;;;;;4.06;87.62;101340.34;5283383;28;19922;-74
2021/12/06 10:26:21;;;;;;;;;;;;;;;4.02;87.57;101328.19;5276952;28;19916;-74
2021/12/06 10:28:57;;;;;;;;;;;;;;;3.97;88.16;101319.81;5277150;28;20350;-76
2021/12/06 10:31:30;;;;;;;;;;;;;;;4.03;88.03;101316.94;5280419;28;19924;-75
2021/12/06 10:34:01;;;;;;;;;;;;;;;4.05;87.47;101314.81;5266715;28;20011;-76
2021/12/06 10:36:33;;;;;;;;;;;;;;;4.01;87.33;101329.22;5293234;28;20007;-75
2021/12/06 10:39:06;;;;;;;;;;;;;;;3.97;87.22;101323.38;5283141;28;19917;-76
2021/12/06 10:41:37;;;;;;;;;;;;;;;3.90;87.63;101326.22;5279357;28;20252;-76
2021/12/06 10:44:10;;;;;;;;;;;;;;;3.87;87.45;101317.63;5282165;28;19928;-74
2021/12/06 10:46:43;;;;;;;;;;;;;;;3.78;88.09;101324.50;5283622;28;19919;-75
2021/12/06 10:49:16;;;;;;;;;;;;;;;3.73;88.36;101308.75;5283533;28;20011;-74
2021/12/06 10:51:47;;;;;;;;;;;;;;;3.73;88.64;101299.69;5282891;28;19976;-73
2021/12/06 10:54:34;;;;;;;;;;;;;;;3.73;88.08;101291.44;5283312;28;21286;-75
2021/12/06 10:57:08;;;;;;;;;;;;;;;3.77;88.73;101279.78;5283516;28;19921;-75
2021/12/06 10:59:39;;;;;;;;;;;;;;;3.80;89.07;101273.81;5261691;28;20360;-74
2021/12/06 11:02:11;;;;;;;;;;;;;;;3.85;88.52;101268.47;5273896;28;19927;-78
2021/12/06 11:04:43;;;;;;;;;;;;;;;3.84;87.77;101260.50;5281994;28;19926;-78
2021/12/06 11:07:14;;;;;;;;;;;;;;;3.86;87.35;101261.06;5282551;28;20299;-79
2021/12/06 11:09:46;;;;;;;;;;;;;;;3.85;86.50;101270.38;5280646;28;20368;-78
2021/12/06 11:12:19;;;;;;;;;;;;;;;3.79;85.74;101266.66;5277454;28;19924;-77
2021/12/06 11:14:51;;;;;;;;;;;;;;;3.68;85.27;101268.31;5283128;28;20022;-77
2021/12/06 11:17:23;;;;;;;;;;;;;;;3.57;85.95;101263.59;5281161;28;20011;-77
2021/12/06 11:19:54;;;;;;;;;;;;;;;3.53;85.81;101256.06;5270106;28;19916;-80
2021/12/06 11:22:26;;;;;;;;;;;;;;;3.51;85.47;101252.75;5293347;28;19916;-78
2021/12/06 11:24:58;;;;;;;;;;;;;;;3.53;86.01;101239.63;5283885;28;19928;-72
2021/12/06 11:27:36;;;;;;;;;;;;;;;3.56;85.94;101228.19;5275952;28;19917;-74
2021/12/06 11:30:11;;;;;;;;;;;;;;;3.57;85.70;101227.94;5247832;28;19929;-74
2021/12/06 11:32:44;;;;;;;;;;;;;;;3.62;85.60;101232.75;5279377;28;19974;-78
2021/12/06 11:35:17;;;;;;;;;;;;;;;3.64;84.77;101236.09;5271850;28;20364;-78
2021/12/06 11:37:50;;;;;;;;;;;;;;;3.64;85.02;101231.44;5285250;28;19924;-77
2021/12/06 11:40:29;;;;;;;;;;;;;;;3.67;85.03;101227.38;5281952;28;20659;-78
2021/12/06 11:43:07;;;;;;;;;;;;;;;3.69;85.35;101217.84;5279131;28;20085;-78
2021/12/06 11:45:49;;;;;;;;;;;;;;;3.72;85.13;101213.81;5285794;28;19921;-79
2021/12/06 11:48:27;;;;;;;;;;;;;;;3.69;85.15;101217.03;5275973;28;20007;-75
2021/12/06 11:51:11;;;;;;;;;;;;;;;3.69;85.20;101206.88;5265596;28;20261;-75
2021/12/06 11:53:44;;;;;;;;;;;;;;;3.72;84.87;101205.56;5265535;28;19917;-76
2021/12/06 11:56:18;;;;;;;;;;;;;;;3.74;85.20;101211.66;5267697;28;19921;-76
2021/12/06 11:58:54;;;;;;;;;;;;;;;3.80;85.02;101202.47;5265765;28;19931;-75
2021/12/06 12:01:31;;;;;;;;;;;;;;;3.84;84.68;101197.38;5259617;28;20364;-75
2021/12/06 12:04:04;;;;;;;;;;;;;;;3.89;84.96;101194.75;5266221;28;19918;-75
2021/12/06 12:06:37;;;;;;;;;;;;;;;3.88;83.84;101187.59;5266229;28;19913;-76
2021/12/06 12:09:08;;;;;;;;;;;;;;;3.89;85.11;101179.13;5264313;28;19921;-72
2021/12/06 12:11:56;;;;;;;;;;;;;;;4.04;86.17;101180.53;5264682;28;19920;-71
2021/12/06 12:14:32;;;;;;;;;;;;;;;4.18;87.70;101175.69;5264980;28;19921;-70
2021/12/06 12:17:06;;;;;;;;;;;;;;;4.26;86.44;101170.66;5264563;28;20264;-72
2021/12/06 12:19:39;;;;;;;;;;;;;;;4.33;85.80;101168.63;5265178;28;20026;-71
2021/12/06 12:22:11;;;;;;;;;;;;;;;4.32;84.65;101175.19;5265132;28;19917;-72
2021/12/06 12:24:45;;;;;;;;;;;;;;;4.28;84.27;101163.00;5264598;28;19926;-73
2021/12/06 12:27:34;;;;;;;;;;;;;;;4.20;84.19;101157.88;5264651;28;20432;-73
2021/12/06 12:30:07;;;;;;;;;;;;;;;4.20;84.58;101146.06;5264449;28;19920;-73
2021/12/06 12:32:38;;;;;;;;;;;;;;;4.21;84.80;101137.59;5264936;28;20356;-72
2021/12/06 12:35:10;;;;;;;;;;;;;;;4.23;84.77;101138.19;5265302;28;19921;-71
2021/12/06 12:37:43;;;;;;;;;;;;;;;4.23;84.45;101140.09;5263703;28;19920;-70
2021/12/06 12:40:15;;;;;;;;;;;;;;;4.25;84.79;101143.44;5264824;28;19917;-71
2021/12/06 12:42:57;;;;;;;;;;;;;;;4.27;84.91;101136.63;5263401;28;19928;-71
2021/12/06 12:45:32;;;;;;;;;;;;;;;4.31;85.15;101132.31;5259022;28;19929;-71
2021/12/06 12:48:03;;;;;;;;;;;;;;;4.32;84.73;101131.25;5271084;28;20031;-70
2021/12/06 12:50:37;;;;;;;;;;;;;;;4.34;84.78;101131.81;5283916;28;20393;-71
2021/12/06 12:53:14;;;;;;;;;;;;;;;4.35;84.39;101119.78;5286349;28;20382;-71
2021/12/06 12:55:49;;;;;;;;;;;;;;;4.37;84.52;101111.28;5284501;28;19921;-72
2021/12/06 12:58:23;;;;;;;;;;;;;;;4.34;84.23;101106.28;5306145;28;20019;-73
2021/12/06 13:01:01;;;;;;;;;;;;;;;4.34;84.60;101109.84;5301395;28;19962;-72
2021/12/06 13:03:32;;;;;;;;;;;;;;;4.39;84.80;101100.06;5281886;28;20023;-73
2021/12/06 13:06:15;;;;;;;;;;;;;;;4.43;85.20;101091.13;5286811;28;19923;-78
2021/12/06 13:08:54;;;;;;;;;;;;;;;4.46;84.45;101087.88;5270249;28;20375;-78
2021/12/06 13:11:29;;;;;;;;;;;;;;;4.46;84.42;101078.81;5291291;28;19924;-76
2021/12/06 13:14:02;;;;;;;;;;;;;;;4.46;84.64;101065.06;5283583;28;20039;-73
2021/12/06 13:16:44;;;;;;;;;;;;;;;4.49;84.58;101061.84;5284667;28;20423;-73
2021/12/06 13:19:32;;;;;;;;;;;;;;;4.54;84.77;101053.69;5279653;28;19928;-72
2021/12/06 13:22:13;;;;;;;;;;;;;;;4.59;84.67;101051.06;5282764;28;19920;-73
2021/12/06 13:24:46;;;;;;;;;;;;;;;4.61;84.13;101043.41;5284209;28;19917;-74
2021/12/06 13:27:22;;;;;;;;;;;;;;;4.68;85.06;101035.00;5270045;28;19966;-71
2021/12/06 13:30:17;;;;;;;;;;;;;;;4.75;84.46;101041.19;5285024;28;19917;-73
2021/12/06 13:32:52;;;;;;;;;;;;;;;4.76;84.00;101040.94;5284229;28;19921;-73